North Ogden, Utah
Current Conditions -  °F | °C
As of 5:02 PM on Thursday 18 Dec 2014 (Local Time) from KOGD Reporting Station
Broken Clouds Broken Clouds  
Wind Chill: 39°   Ceiling: 8000
Heat Index: 39°   Visibility: 10mi
Dew Point: 31°   Wind: 3mph
Humidity: 73%   Direction: 280°W
Pressure: 30.14"   Gusts: NA
Location:  41.3178°N, 111.954°W
Report Text: KOGD 190002Z AUTO 28003KT 10SM SCT028 SCT033 BKN080 04/M01 A3014 RMK AO2 T00391006 TSNO
Loading
Personal Weather Stations






























Interactive Weather Map New forecast layout! Learn more

10-Day Weather Forecast

Advertisements
Track Severe Weather on mobile